Impacts METAR Board INFO
IDs:

KIAH - Houston/Bush Intl, TX, US

Updated at: 1005 UTC 17 Dec 2017
Potential Impact None Slight Moderate High
Time16/22Z 16/23Z 17/00Z 17/01Z 17/02Z 17/03Z 17/04Z 17/05Z 17/06Z 17/07Z 17/08Z 17/09Z 17/10Z
VIS10 10 10 10 10 5 1.5 7 10 10 10 10 10
CIG35 28 24 18 16 13 7 7 7 90 6 5 5
CoverOVCOVCOVCOVCOVCOVCOVCOVCOVCOVCOVCOVCOVC
FltCatVFRMVFRMVFRMVFRMVFRMVFRIFRIFRIFRVFRIFRIFRIFR
WX-----RA---RARA BR+RA BR-RA----------
WDir12080901001101102803103402035020350
WSpd7 8 10 15 13 12 24 13 9 8 5 4 6
WGst-- -- -- -- 20 -- 33 -- -- -- -- -- --
Raw hourly METARs
KIAH 162153Z 12007KT 10SM BKN035 BKN090 OVC250 14/02 A3007 RMK AO2 SLP184 T01390022
KIAH 162253Z 08008KT 10SM OVC028 13/02 A3005 RMK AO2 SLP175 T01330017
KIAH 162353Z 09010KT 10SM -RA OVC024 13/03 A3002 RMK AO2 RAB47 SLP166 P0000 60000 T01280028 10156 20128 58015
KIAH 170053Z 10015KT 10SM OVC018 13/03 A3000 RMK AO2 RAE07 SLP159 P0000 T01330033
KIAH 170153Z 11013G20KT 10SM -RA OVC016 12/07 A2997 RMK AO2 RAB15 SLP148 P0001 T01170067
KIAH 170253Z 11012KT 5SM RA BR OVC013 11/09 A2994 RMK AO2 SLP140 P0006 60007 T01110094 58026
KIAH 170353Z 28024G33KT 1 1/2SM +RA BR BKN007 OVC011 12/12 A3000 RMK AO2 PK WND 28033/0353 PRESRR SLP158 P0029 T01170117
KIAH 170453Z COR 31013KT 7SM -RA BKN007 OVC045 09/09 A3005 RMK AO2 PK WND 28027/0354 SLP177 P0046 T00940089
KIAH 170553Z 34009KT 10SM BKN007 OVC045 09/08 A3003 RMK AO2 RAE0454 SLP168 P0000 60082 T00890083 10133 20089 401560033 50029
KIAH 170653Z 02008KT 10SM SCT007 OVC090 09/08 A3002 RMK AO2 SLP166 T00890083
KIAH 170753Z 35005KT 10SM BKN006 BKN090 OVC160 09/08 A3002 RMK AO2 SLP167 T00890083
KIAH 170853Z 02004KT 10SM BKN005 OVC015 09/08 A3003 RMK AO2 SLP169 T00890083 53001
KIAH 170953Z 35006KT 10SM BKN005 OVC012 09/08 A3005 RMK AO2 SLP176 T00890083